Hindsville, Arkansas
Current Conditions -  °F | °C
As of 7:48 PM on Thursday 20 Nov 2014 (Local Time) from KASG Reporting Station
Clear Clear  
Wind Chill: 45°   Ceiling: Unl
Heat Index: 45°   Visibility: 10mi
Dew Point: 30°   Wind: 0mph
Humidity: 57%   Direction: NA
Pressure: 30.15"   Gusts: NA
Location:  36.14°N, 93.86°W
Report Text: KASG 210148Z 00000KT 10SM SKC 07/M01 A3015
Loading
Personal Weather Stations






























Interactive Weather Map New forecast layout! Learn more

10-Day Weather Forecast

Advertisements
Track Severe Weather on mobile